Participated 2 times
Between 1932 and 1933
Fernand Cornez, France
Tour de France 2026 starts from Edinburgh, Scotland in

Stats and Facts from
Tour de France.

2026   2025   2024   2023  2022  2021  2020  2019   2018  2017   2016   2015  2014  2013   2012   2011  2010   2009   2008   2007   2006   2005   2004   2003   2002   2001   2000   1999   1998   1997  1996   1995   1994   1993   1992  1991   1990   1989   1988   1987   1986   1985   1984   1983  1982  1981   1980   1979  1978  1977   1976  1975  1974  1973   1972   1971   1970  1969   1968   1967   1966   1965  1964  1963   1962   1961   1960   1959   1958   1957  1956   1955   1954   1953   1952  1951  1950  1949   1948  1947  1939   1938   1937   1936   1935   1934   1933  1932   1931   1930  1929   1928   1927   1926  1925  1924  1923   1922   1921   1920   1919  1914   1913   1912   1911   1910  1909   1908   1907   1906  1905  1904   1903 

Tourstats
Sitemap

After stage 21 - 2026:
 16451 starters.
  5513 different riders.
  689 teams.
  2419 stages.
  470 restdays.
  469752.50 km.
  5946 abandoned riders.

Click map for 1990 route.
Facts from Tour de France 1990
  |   Stages.  |   Stage winners.  |   Days in jerseys.  |   Teams.  |   All riders.  |   All riders by age.  |   All riders from.  |  

  |   Rookies.  |   Withdrawls.  |   Average speed.  |   GC.  |   Polka  |   Green  |   White  |   Summits. (In tour)  |   Miscellaneous.  |  

Stage 14 on July 15th. 1990
Pick a stage:  Pro  1  2  3  4  5  6  7  8  9  10  11  12  13  14  15  16  17  18  19  20  21  

After stage 14:    Claudio Chiappucci  
  Le Puy-en-VelayMillau | Dist: 205.00km. | Winner: Marino Lejarreta

Podium
4  Côte de Montbonnet Thierry Claveyrolatafter14.00 km.

3  Côte de Vachellerie Frédéric Brunafter37.00 km.

4  Côte de Esplantas Jean-Claude Colottiafter49.00 km.

4  Côte de Gardilles Jean-Claude Colottiafter71.00 km.

1  Monta du Cade Marino Lejarretaafter205.00 km.


Average speed for all riders in stage:  38,631 km./hr.

1
 Marino Lejarreta  O.N.C.E.05h 12' 03"=39,417  km/h

2
 Miguel Indurain  Banesto05h 12' 27"+  00:00:24 =39,366  km/h

3
 Gianni Bugno  Chateau d'Ax05h 12' 28"+  00:00:25 =39,364  km/h

4  Raúl Alcalá  PDM-Concorde05h 12' 36"+  00:00:33 =39,347  km/h

5  Greg LeMond  Z05h 12' 37"+  00:00:34 =39,345  km/h

6  Erik Breukink  PDM-Concorde05h 12' 37"+  00:00:34 =39,345  km/h

7  Pedro Delgado  Banesto05h 12' 37"+  00:00:34 =39,345  km/h

8  Claude Criquielion  Lotto-Super Club05h 12' 37"+  00:00:34 =39,345  km/h

9  William Palacio  Ryalcao-Postobon05h 12' 37"+  00:00:34 =39,345  km/h

10  Gilles Delion  Helvetia-La Suisse05h 12' 37"+  00:00:34 =39,345  km/h

11  Fabio Parra  Kelme-Ibexpress05h 12' 37"+  00:00:34 =39,345  km/h

12  Roberto Conti  Ariostea05h 12' 45"+  00:00:42 =39,329  km/h

13  Claudio Chiappucci  Carrera Jeans-Vagabond05h 12' 50"+  00:00:47 =39,318  km/h

14  Fabrice Philipot  Castorama-Raleigh05h 12' 50"+  00:00:47 =39,318  km/h

15  Miguel Angel Martinez  O.N.C.E.05h 12' 50"+  00:00:47 =39,318  km/h

16  Pascal Lino  R.M.O.-Mavic-Liberia05h 12' 50"+  00:00:47 =39,318  km/h

17  Nelson Rodríguez  Kelme-Ibexpress05h 12' 58"+  00:00:55 =39,301  km/h

18  Reynel Montoya  Ryalcao-Postobon05h 13' 03"+  00:01:00 =39,291  km/h

19  Pello Ruiz Cabestany  O.N.C.E.05h 13' 22"+  00:01:19 =39,251  km/h

20  Alessandro Giannelli  Carrera Jeans-Vagabond05h 13' 28"+  00:01:25 =39,239  km/h

21  Andy Hampsten  7 Eleven-Hoonved05h 13' 28"+  00:01:25 =39,239  km/h

22  Laurent Biondi  Histor-Sigma05h 13' 32"+  00:01:29 =39,230  km/h

23  Thierry Claveyrolat  R.M.O.-Mavic-Liberia05h 13' 32"+  00:01:29 =39,230  km/h

24  Eduardo Chozas  O.N.C.E.05h 13' 34"+  00:01:31 =39,226  km/h

25  Stephen Roche  Histor-Sigma05h 13' 34"+  00:01:31 =39,226  km/h

26  Pablo Hernández  Ryalcao-Postobon05h 13' 34"+  00:01:31 =39,226  km/h

27  Ronan Pensec  Z05h 13' 34"+  00:01:31 =39,226  km/h

28  Vicente Ridaura  Seur05h 13' 34"+  00:01:31 =39,226  km/h

29  Atle Kvå lsvoll  Z05h 13' 34"+  00:01:31 =39,226  km/h

30  Robert Millar  Z05h 13' 34"+  00:01:31 =39,226  km/h

31  Johan Bruyneel  Lotto-Super Club05h 13' 52"+  00:01:49 =39,189  km/h

32  Piotr Ugrumov  Alfa Lum05h 13' 52"+  00:01:49 =39,189  km/h

33  Jerôme Simon  Z05h 13' 52"+  00:01:49 =39,189  km/h

34  Gerardo Moncada  Ryalcao-Postobon05h 13' 52"+  00:01:49 =39,189  km/h

35  Óscar Vargas  Ryalcao-Postobon05h 13' 52"+  00:01:49 =39,189  km/h

36  Abelardo Rondón  Banesto05h 14' 04"+  00:02:01 =39,164  km/h

37  Pascal Simon  Castorama-Raleigh05h 14' 14"+  00:02:11 =39,143  km/h

38  Bjarne Riis  Castorama-Raleigh05h 14' 14"+  00:02:11 =39,143  km/h

39  Michel Dernies  Weinmann-La Suisse-S.M.M. Uster05h 14' 31"+  00:02:28 =39,108  km/h

40  Beat Breu  Weinmann-La Suisse-S.M.M. Uster05h 14' 31"+  00:02:28 =39,108  km/h

41  Pascal Lance  Toshiba05h 14' 31"+  00:02:28 =39,108  km/h

42  Jesus Rodriguez Magro  Banesto05h 14' 31"+  00:02:28 =39,108  km/h

43  Luc Leblanc  Castorama-Raleigh05h 14' 31"+  00:02:28 =39,108  km/h

44  Jean-Claude Bagot  R.M.O.-Mavic-Liberia05h 14' 31"+  00:02:28 =39,108  km/h

45  Bruno Cornillet  Z05h 14' 31"+  00:02:28 =39,108  km/h

46  Dimitri Konychev  Alfa Lum05h 14' 40"+  00:02:37 =39,089  km/h

47  Steven Rooks  Panasonic-Sportlife05h 14' 50"+  00:02:47 =39,068  km/h

48  Jörg Müller  TVM05h 14' 56"+  00:02:53 =39,056  km/h

49  Stephen Hodge  O.N.C.E.05h 14' 56"+  00:02:53 =39,056  km/h

50  Marcello Siboni  Ariostea05h 14' 56"+  00:02:53 =39,056  km/h

51  Sean Kelly  PDM-Concorde05h 15' 13"+  00:03:10 =39,021  km/h

52  Steve Bauer  7 Eleven-Hoonved05h 15' 13"+  00:03:10 =39,021  km/h

53  Brian Holm  Histor-Sigma05h 15' 13"+  00:03:10 =39,021  km/h

54  Anselmo Fuerte  O.N.C.E.05h 15' 42"+  00:03:39 =38,961  km/h

55  Álvaro Mejía  Ryalcao-Postobon05h 15' 42"+  00:03:39 =38,961  km/h

56  Philippe Louviot  Toshiba05h 15' 46"+  00:03:43 =38,953  km/h

57  François Lemarchand  Z05h 15' 46"+  00:03:43 =38,953  km/h

58  Patrick Verschueren  Lotto-Super Club05h 15' 46"+  00:03:43 =38,953  km/h

59  Nestor Mora  Kelme-Ibexpress05h 15' 46"+  00:03:43 =38,953  km/h

60  Roberto Gusmeroli  Chateau d'Ax05h 15' 47"+  00:03:44 =38,951  km/h

61  Søren Lilholt  Histor-Sigma05h 15' 55"+  00:03:52 =38,934  km/h

62  Juan Martinez Oliver  Banesto05h 15' 55"+  00:03:52 =38,934  km/h

63  José Urea  Seur05h 16' 05"+  00:04:02 =38,914  km/h

64  Laurent Pillon  Histor-Sigma05h 16' 05"+  00:04:02 =38,914  km/h

65  Rudy Dhaenens  PDM-Concorde05h 16' 05"+  00:04:02 =38,914  km/h

66  Christian Chaubet  Toshiba05h 16' 16"+  00:04:13 =38,891  km/h

67  Dominique Arnaud  Banesto05h 16' 19"+  00:04:16 =38,885  km/h

68  Carlos Jaramillo  Ryalcao-Postobon05h 16' 19"+  00:04:16 =38,885  km/h

69  Gerrit De Vries  Buckler05h 16' 55"+  00:04:52 =38,811  km/h

70  Henri Manders  Helvetia-La Suisse05h 16' 55"+  00:04:52 =38,811  km/h

71  Denis Roux  Toshiba05h 17' 04"+  00:05:01 =38,793  km/h

72  Patrick Robeet  Weinmann-La Suisse-S.M.M. Uster05h 17' 21"+  00:05:18 =38,758  km/h

73  Antonio Diaz  Kelme-Ibexpress05h 17' 38"+  00:05:35 =38,724  km/h

74  Phil Anderson  TVM05h 17' 45"+  00:05:42 =38,710  km/h

75  Eric Van Lancker  Panasonic-Sportlife05h 17' 56"+  00:05:53 =38,687  km/h

76  Éric Boyer  Z05h 17' 56"+  00:05:53 =38,687  km/h

77  Guy Nulens  Panasonic-Sportlife05h 17' 56"+  00:05:53 =38,687  km/h

78  José Rodriguez  Seur05h 17' 56"+  00:05:53 =38,687  km/h

79  Marc Sergeant  Panasonic-Sportlife05h 17' 56"+  00:05:53 =38,687  km/h

80  Djamolidine Abduzhaparov  Alfa Lum05h 17' 56"+  00:05:53 =38,687  km/h

81  Jean-Claude Colotti  R.M.O.-Mavic-Liberia05h 17' 56"+  00:05:53 =38,687  km/h

82  Dag Otto Lauritzen  7 Eleven-Hoonved05h 17' 56"+  00:05:53 =38,687  km/h

83  Viatcheslav Ekimov  Panasonic-Sportlife05h 17' 56"+  00:05:53 =38,687  km/h

84  Jos Haex  Lotto-Super Club05h 17' 56"+  00:05:53 =38,687  km/h

85  Thomas Wegmüller  Weinmann-La Suisse-S.M.M. Uster05h 17' 56"+  00:05:53 =38,687  km/h

86  Kurt Steinmann  Weinmann-La Suisse-S.M.M. Uster05h 17' 56"+  00:05:53 =38,687  km/h

87  Alexandre Trubine  Alfa Lum05h 17' 56"+  00:05:53 =38,687  km/h

88  Thierry Laurent  R.M.O.-Mavic-Liberia05h 17' 56"+  00:05:53 =38,687  km/h

89  Valerio Piva  Ariostea05h 17' 56"+  00:05:53 =38,687  km/h

90  Hans-Rüdi Märki  Helvetia-La Suisse05h 17' 56"+  00:05:53 =38,687  km/h

91  Martin Schalkers  TVM05h 17' 56"+  00:05:53 =38,687  km/h

92  Tony Rominger  Chateau d'Ax05h 17' 56"+  00:05:53 =38,687  km/h

93  Uwe Raab  PDM-Concorde05h 17' 56"+  00:05:53 =38,687  km/h

94  Davide Cassani  Ariostea05h 17' 56"+  00:05:53 =38,687  km/h

95  Mario Kummer  Chateau d'Ax05h 17' 56"+  00:05:53 =38,687  km/h

96  Alberto Volpi  Chateau d'Ax05h 17' 56"+  00:05:53 =38,687  km/h

97  Niki Rüttimann  Helvetia-La Suisse05h 17' 56"+  00:05:53 =38,687  km/h

98  Bruno Cenghialta  Ariostea05h 17' 56"+  00:05:53 =38,687  km/h

99  Acacio da Silva  Carrera Jeans-Vagabond05h 17' 56"+  00:05:53 =38,687  km/h

100  William Pulido  Ryalcao-Postobon05h 17' 56"+  00:05:53 =38,687  km/h

101  Roland Le Clerc  Toshiba05h 17' 56"+  00:05:53 =38,687  km/h

102  Javier Lukin  Banesto05h 17' 56"+  00:05:53 =38,687  km/h

103  Alberto Elli  Ariostea05h 17' 56"+  00:05:53 =38,687  km/h

104  Gilbert Duclos-Lassalle  Z05h 17' 56"+  00:05:53 =38,687  km/h

105  Charly Mottet  R.M.O.-Mavic-Liberia05h 17' 56"+  00:05:53 =38,687  km/h

106  Andrew Bishop  7 Eleven-Hoonved05h 17' 56"+  00:05:53 =38,687  km/h

107  Pablo Moreno  Seur05h 17' 56"+  00:05:53 =38,687  km/h

108  Peter Roes  Lotto-Super Club05h 17' 56"+  00:05:53 =38,687  km/h

109  Willem Van Eynde  Lotto-Super Club05h 17' 56"+  00:05:53 =38,687  km/h

110  Johan Museeuw  Lotto-Super Club05h 17' 56"+  00:05:53 =38,687  km/h

111  Mauro Gianetti  Helvetia-La Suisse05h 18' 19"+  00:06:16 =38,641  km/h

112  Toine  Poels  Buckler05h 18' 33"+  00:06:30 =38,612  km/h

113  Adrie Van Der Poel  Weinmann-La Suisse-S.M.M. Uster05h 18' 42"+  00:06:39 =38,594  km/h

114  Jean-Claude Leclercq  Helvetia-La Suisse05h 18' 48"+  00:06:45 =38,582  km/h

115  Frédéric Brun  R.M.O.-Mavic-Liberia05h 18' 48"+  00:06:45 =38,582  km/h

116  Juan Castillo  Ryalcao-Postobon05h 18' 48"+  00:06:45 =38,582  km/h

117  Bob Roll  7 Eleven-Hoonved05h 18' 54"+  00:06:51 =38,570  km/h

118  Ron Kiefel  7 Eleven-Hoonved05h 19' 09"+  00:07:06 =38,540  km/h

119  Davis Phinney  7 Eleven-Hoonved05h 19' 09"+  00:07:06 =38,540  km/h

120  Jelle Nijdam  Buckler05h 19' 26"+  00:07:23 =38,506  km/h

121  Frans Maassen  Buckler05h 19' 26"+  00:07:23 =38,506  km/h

122  Jan Schur  Chateau d'Ax05h 19' 26"+  00:07:23 =38,506  km/h

123  Wilfried Peeters  Histor-Sigma05h 19' 48"+  00:07:45 =38,462  km/h

124  José Ángel Sarrapio  Kelme-Ibexpress05h 20' 06"+  00:08:03 =38,425  km/h

125  Maarten Ducrot  TVM05h 20' 11"+  00:08:08 =38,415  km/h

126  Michel Vermote  R.M.O.-Mavic-Liberia05h 20' 40"+  00:08:37 =38,358  km/h

127  Jan Goessens  Weinmann-La Suisse-S.M.M. Uster05h 20' 40"+  00:08:37 =38,358  km/h

128  Adriano Baffi  Ariostea05h 20' 40"+  00:08:37 =38,358  km/h

129  Carlo Bomans  Weinmann-La Suisse-S.M.M. Uster05h 20' 40"+  00:08:37 =38,358  km/h

130  Peter De Clercq  Lotto-Super Club05h 20' 40"+  00:08:37 =38,358  km/h

131  Thierry Marie  Castorama-Raleigh05h 20' 40"+  00:08:37 =38,358  km/h

132  Patrick Tolhoek  Buckler05h 20' 40"+  00:08:37 =38,358  km/h

133  Vincent Barteau  Castorama-Raleigh05h 20' 40"+  00:08:37 =38,358  km/h

134  Guido Bontempi  Carrera Jeans-Vagabond05h 20' 40"+  00:08:37 =38,358  km/h

135  Olaf Ludwig  Panasonic-Sportlife05h 20' 40"+  00:08:37 =38,358  km/h

136  Gert Jakobs  PDM-Concorde05h 20' 40"+  00:08:37 =38,358  km/h

137  Jean-Paul van Poppel  Panasonic-Sportlife05h 20' 40"+  00:08:37 =38,358  km/h

138  Sean Yates  7 Eleven-Hoonved05h 20' 40"+  00:08:37 =38,358  km/h

139  Herminio Diaz Zabala  O.N.C.E.05h 20' 57"+  00:08:54 =38,324  km/h

140  Melchor Mauri  O.N.C.E.05h 20' 57"+  00:08:54 =38,324  km/h

141  Mauro-Antonio Santaromita  Chateau d'Ax05h 21' 06"+  00:09:03 =38,306  km/h

142  Jan Siemons  TVM05h 21' 06"+  00:09:03 =38,306  km/h

143  Edwig Van Hooydonck  Buckler05h 21' 06"+  00:09:03 =38,306  km/h

144  Gerrit Solleveld  Buckler05h 21' 06"+  00:09:03 =38,306  km/h

145  Ivan Ivanov  Alfa Lum05h 21' 22"+  00:09:19 =38,274  km/h

146  Marino Alonso  Banesto05h 21' 24"+  00:09:21 =38,270  km/h

147  Norman Alvis  7 Eleven-Hoonved05h 21' 56"+  00:09:53 =38,207  km/h

148  Erich Mächler  Carrera Jeans-Vagabond05h 21' 56"+  00:09:53 =38,207  km/h

149  Jesús Rosado  Kelme-Ibexpress05h 21' 56"+  00:09:53 =38,207  km/h

150  Giovanni Fidanza  Chateau d'Ax05h 22' 56"+  00:10:53 =38,088  km/h

151  Massimo Ghirotto  Carrera Jeans-Vagabond05h 22' 56"+  00:10:53 =38,088  km/h

152  Nikolai Golovatenko  Alfa Lum05h 22' 56"+  00:10:53 =38,088  km/h

153  Giancarlo Perini  Carrera Jeans-Vagabond05h 22' 56"+  00:10:53 =38,088  km/h

154  Guiseppe Calcaterra  Chateau d'Ax05h 23' 09"+  00:11:06 =38,063  km/h

155  Hendrik Redant  Lotto-Super Club05h 23' 09"+  00:11:06 =38,063  km/h

156  Antonio Espejo  Kelme-Ibexpress05h 23' 09"+  00:11:06 =38,063  km/h

157  Vasily Zhdanov  Alfa Lum05h 38' 15"+  00:26:12 =36,364  km/h

158  Asiat Saitov  Alfa Lum05h 38' 15"+  00:26:12 =36,364  km/h

159  Jos Van Aert  PDM-Concorde05h 44' 05"+  00:32:02 =35,747  km/h

160  Rodolfo Massi  Ariostea05h 44' 05"+  00:32:02 =35,747  km/h

161  Guido Winterberg  Helvetia-La Suisse05h 44' 49"+  00:32:46 =35,671  km/h

162  Paul Haghedooren  Histor-Sigma05h 45' 39"+  00:33:36 =35,585  km/h

163  Andreas Kappes  Toshiba05h 47' 32"+  00:35:29 =35,392  km/h

164  Maximilian Sciandri  Carrera Jeans-Vagabond05h 50' 03"+  00:38:00 =35,138  km/h


Withdrawls: 4
 RiderTeamReason
13   Christophe Lavainne Castorama-RaleighDid not finish
49   Johnny Weltz O.N.C.E.Did not finish
111   Pascal Richard Helvetia-La SuisseDid not finish
176   Flavio Giupponi Carrera Jeans-VagabondDid not finish
Todays birthdays.

1877 • Julien Girbe
1886 • Robert Chopard
1896 • Charles Loew
1906 • Gottlieb Wanzenried
1909 • Eugene Le Goff
1930 • François Mahé
1951 • Bernard Bourreau
1967 • Jesús Rosado
1971 • Tom Steels

 

Optimized for Chrome - Edge
and Opera browsers.